Batman, Turkey
Current Conditions -  °F | °C
As of 4:20 PM on Sunday 23 Nov 2014 (Local Time) from LTCJ Reporting Station
Scattered Clouds Scattered Clouds  
Wind Chill: 50°   Ceiling: Unl
Heat Index: 50°   Visibility: 6mi
Dew Point: 41°   Wind: 5mph
Humidity: 71%   Direction: 220°SW
Pressure: 30.03"   Gusts: NA
Location:  37.89°N, 41.13°E
Report Text: LTCJ 231320Z 22004KT 9999 FEW040 SCT200 10/05 Q1017
Loading
Personal Weather Stations






























Interactive Weather Map New forecast layout! Learn more

10-Day Weather Forecast

Advertisements
Track Severe Weather on mobile